Time;durP1;ratioP1;P1;durP2;ratioP2;P2;SDS_P1;SDS_P2;PMS_P1;PMS_P2;Temp;Humidity;BMP_temperature;BMP_pressure;BME280_temperature;BME280_humidity;BME280_pressure;Samples;Min_cycle;Max_cycle;Signal;HPM_P1;HPM_P2
2023/12/23 00:00:55;;;;;;;;;;;;;;;;;;;;;
2023/12/23 00:04:18;;;;;;;;;;;;;;;2.25;68.43;97804.43;128103;1298;114946;-71
2023/12/23 00:07:28;;;;;;;4.10;0.90;;;;;;;2.27;68.66;97808.54;128295;1273;114785;-69
2023/12/23 00:10:37;;;;;;;5.20;1.60;;;;;;;2.30;68.76;97809.26;128769;1275;115058;-69
2023/12/23 00:14:03;;;;;;;4.50;0.90;;;;;;;2.33;68.48;97807.14;128648;1294;128869;-69
2023/12/23 00:17:35;;;;;;;5.80;1.00;;;;;;;2.36;68.69;97802.95;128546;1272;114814;-69
2023/12/23 00:21:20;;;;;;;3.90;1.00;;;;;;;2.38;68.65;97810.55;129337;1286;114750;-69
2023/12/23 00:24:31;;;;;;;;;;;;;;;;;;;;;
2023/12/23 00:27:53;;;;;;;;;;;;;;;;;;;;;
2023/12/23 00:31:26;;;;;;;3.00;1.20;;;;;;;2.43;69.12;97840.02;129295;1263;131766;-70
2023/12/23 00:35:09;;;;;;;4.50;1.40;;;;;;;2.45;69.57;97840.16;129246;1267;114827;-70
2023/12/23 00:38:19;;;;;;;6.00;1.20;;;;;;;2.46;69.63;97842.74;129307;1263;114890;-67
2023/12/23 00:41:32;;;;;;;3.60;1.00;;;;;;;2.46;69.77;97839.73;129639;1267;115369;-68
2023/12/23 00:45:03;;;;;;;4.50;1.20;;;;;;;2.45;69.88;97839.59;129521;1266;114792;-69
2023/12/23 00:48:27;;;;;;;2.20;0.80;;;;;;;2.45;70.21;97844.39;129349;1266;128311;-68
2023/12/23 00:51:37;;;;;;;5.80;1.20;;;;;;;2.45;70.54;97850.86;129404;1267;114862;-70
2023/12/23 00:54:42;;;;;;;4.60;1.70;;;;;;;2.45;70.67;97853.16;129425;1264;114689;-69
2023/12/23 00:58:13;;;;;;;1.70;0.50;;;;;;;2.42;70.76;97860.71;129423;1266;114802;-69
2023/12/23 01:01:16;;;;;;;4.50;1.10;;;;;;;2.39;70.84;97853.66;129375;1285;114835;-69
2023/12/23 01:04:59;;;;;;;4.40;0.70;;;;;;;2.34;70.81;97855.35;129344;1266;115408;-69
2023/12/23 01:08:18;;;;;;;2.90;0.80;;;;;;;2.27;70.66;97865.25;129292;1266;114827;-69
2023/12/23 01:11:33;;;;;;;1.90;0.40;;;;;;;2.18;70.62;97880.52;129370;1279;114783;-70
2023/12/23 01:15:02;;;;;;;2.60;0.60;;;;;;;2.07;70.70;97906.30;129374;1270;114742;-70
2023/12/23 01:18:25;;;;;;;1.70;0.70;;;;;;;1.95;70.73;97918.19;129409;1264;114796;-69
2023/12/23 01:21:31;;;;;;;0.90;0.80;;;;;;;1.81;70.93;97927.89;129348;1280;128972;-68
2023/12/23 01:24:45;;;;;;;1.20;1.00;;;;;;;1.70;71.14;97926.20;129436;1267;114760;-70
2023/12/23 01:28:07;;;;;;;2.40;1.00;;;;;;;1.60;71.36;97919.85;129370;1267;114777;-70
2023/12/23 01:32:10;;;;;;;1.60;0.40;;;;;;;1.49;71.60;97929.35;129411;1267;115004;-70
2023/12/23 01:40:16;;;;;;;0.90;0.50;;;;;;;1.34;72.03;97939.25;128781;1277;128568;-70
2023/12/23 01:44:18;;;;;;;2.30;0.80;;;;;;;1.28;72.22;97937.44;127816;1301;115021;-70
2023/12/23 01:48:25;;;;;;;1.30;0.40;;;;;;;1.24;72.72;97945.21;127333;1288;114998;-70
2023/12/23 01:52:26;;;;;;;1.30;0.60;;;;;;;1.20;72.79;97959.08;125703;1316;114909;-70
2023/12/23 01:56:27;;;;;;;0.90;0.60;;;;;;;1.18;72.94;97970.80;125449;1300;114983;-69
2023/12/23 02:05:02;;;;;;;1.70;0.70;;;;;;;1.17;73.22;97981.41;125628;1302;642350;-69
2023/12/23 02:09:05;;;;;;;1.60;1.10;;;;;;;1.15;73.30;97984.50;128085;1282;130618;-68
2023/12/23 02:13:16;;;;;;;0.90;0.80;;;;;;;1.16;73.55;97978.63;127383;1306;114952;-70
2023/12/23 02:17:19;;;;;;;1.10;0.30;;;;;;;1.17;73.46;97984.05;123590;1287;5409496;-69
2023/12/23 02:21:20;;;;;;;1.40;0.40;;;;;;;1.18;73.45;97988.94;126117;1299;114970;-68
2023/12/23 02:25:21;;;;;;;2.40;0.70;;;;;;;1.17;73.89;98001.81;125543;1305;114798;-69
2023/12/23 02:37:37;;;;;;;2.50;0.90;;;;;;;1.11;73.63;98042.70;128463;1278;128148;-69
2023/12/23 02:40:48;;;;;;;1.60;0.90;;;;;;;1.05;73.76;98046.11;128708;1284;114884;-69
2023/12/23 02:44:52;;;;;;;2.70;0.70;;;;;;;1.01;73.44;98055.29;128762;1279;114918;-69
2023/12/23 02:49:05;;;;;;;;;;;;;;;;;;;;;
2023/12/23 02:53:00;;;;;;;1.30;0.70;;;;;;;0.99;73.63;98071.77;125611;1301;636213;-69
2023/12/23 02:56:32;;;;;;;;;;;;;;;;;;;;;
2023/12/23 02:59:40;;;;;;;2.50;0.80;;;;;;;1.03;73.70;98084.19;127907;1297;115033;-70
2023/12/23 03:03:14;;;;;;;1.80;0.40;;;;;;;1.06;73.96;98077.89;128424;1278;114940;-69
2023/12/23 03:06:45;;;;;;;1.40;0.30;;;;;;;1.11;73.79;98085.42;128402;1279;382027;-70
2023/12/23 03:09:58;;;;;;;;;;;;;;;1.16;73.93;98093.25;128258;1283;114879;-71
2023/12/23 03:13:40;;;;;;;1.40;0.70;;;;;;;1.20;73.95;98106.78;128831;1295;127636;-69
2023/12/23 03:17:32;;;;;;;;;;;;;;;;;;;;;
2023/12/23 03:26:02;;;;;;;;;;;;;;;;;;;;;
2023/12/23 03:30:06;;;;;;;1.20;0.70;;;;;;;1.47;73.90;98143.00;128470;1277;129061;-70
2023/12/23 03:38:10;;;;;;;1.40;0.50;;;;;;;1.48;73.16;98157.20;122587;1295;5429181;-70
2023/12/23 03:42:13;;;;;;;2.30;1.50;;;;;;;1.47;73.16;98174.48;125662;1299;114907;-71
2023/12/23 03:46:14;;;;;;;1.70;0.50;;;;;;;1.48;73.24;98184.29;125422;1302;114965;-69
2023/12/23 03:54:41;;;;;;;2.20;0.90;;;;;;;1.50;73.12;98184.54;125931;1299;636568;-69
2023/12/23 03:58:44;;;;;;;3.80;0.60;;;;;;;1.48;72.97;98197.84;128031;1282;128257;-68
2023/12/23 04:02:46;;;;;;;1.60;0.60;;;;;;;1.44;72.82;98206.45;127569;1282;115009;-69
2023/12/23 04:06:22;;;;;;;1.20;0.80;;;;;;;1.40;72.76;98222.48;125763;1293;312719;-70
2023/12/23 04:09:26;;;;;;;1.00;0.60;;;;;;;1.38;73.12;98238.59;126044;1298;114951;-70
2023/12/23 04:13:43;;;;;;;1.80;0.60;;;;;;;1.39;73.29;98251.55;125882;1305;114967;-69
2023/12/23 04:22:18;;;;;;;1.10;0.60;;;;;;;1.39;72.40;98270.72;125528;1304;638663;-70
2023/12/23 04:26:20;;;;;;;1.10;0.70;;;;;;;1.36;72.04;98290.17;127753;1293;128925;-70
2023/12/23 04:30:27;;;;;;;1.90;1.00;;;;;;;1.33;71.82;98301.21;126730;1306;114949;-69
2023/12/23 04:37:39;;;;;;;1.50;0.70;;;;;;;1.22;71.12;98321.93;126299;1298;114928;-68
2023/12/23 04:40:55;;;;;;;1.40;0.60;;;;;;;1.15;70.92;98329.77;126006;1293;115012;-69
2023/12/23 04:44:23;;;;;;;1.20;1.00;;;;;;;1.09;70.82;98344.10;125990;1301;115034;-68
2023/12/23 04:48:09;;;;;;;;;;;;;;;;;;;;;
2023/12/23 04:51:35;;;;;;;;;;;;;;;;;;;;;
2023/12/23 04:54:49;;;;;;;0.80;0.60;;;;;;;0.83;71.13;98366.11;125920;1302;114903;-69
2023/12/23 04:58:56;;;;;;;;;;;;;;;;;;;;;
2023/12/23 05:02:08;;;;;;;0.80;0.50;;;;;;;0.65;70.97;98373.66;125731;1317;115052;-70
2023/12/23 05:05:10;;;;;;;1.20;0.80;;;;;;;0.58;71.15;98384.83;126115;1310;128115;-70
2023/12/23 05:08:16;;;;;;;0.70;0.60;;;;;;;0.53;71.26;98398.23;126770;1310;115278;-70
2023/12/23 05:11:29;;;;;;;1.60;0.40;;;;;;;0.45;70.94;98403.45;127153;1289;114940;-68
2023/12/23 05:14:44;;;;;;;0.90;0.40;;;;;;;0.38;70.84;98404.26;127418;1302;114958;-69
2023/12/23 05:17:46;;;;;;;1.30;0.90;;;;;;;0.31;71.25;98408.54;127628;1285;114846;-68
2023/12/23 05:20:54;;;;;;;1.40;1.20;;;;;;;0.26;71.47;98425.77;127643;1285;114995;-70
2023/12/23 05:24:49;;;;;;;;;;;;;;;;;;;;;
2023/12/23 05:28:52;;;;;;;5.40;0.70;;;;;;;0.13;71.71;98427.84;128097;1283;114953;-68
2023/12/23 05:32:55;;;;;;;0.50;0.40;;;;;;;0.06;72.01;98431.77;127319;1290;114937;-69
2023/12/23 05:41:03;;;;;;;0.70;0.50;;;;;;;-0.01;72.68;98440.80;125886;1304;127961;-68
2023/12/23 05:45:04;;;;;;;1.30;0.40;;;;;;;-0.03;72.95;98460.69;125703;1301;114945;-68
2023/12/23 05:49:06;;;;;;;1.00;0.70;;;;;;;-0.03;72.92;98473.16;125430;1304;115013;-68
2023/12/23 05:53:08;;;;;;;1.40;0.60;;;;;;;-0.02;73.13;98479.44;124907;1324;114782;-68
2023/12/23 06:01:26;;;;;;;3.00;0.50;;;;;;;0.09;73.17;98489.77;126444;1295;640097;-69
2023/12/23 06:05:27;;;;;;;0.50;0.30;;;;;;;0.11;73.25;98496.88;129165;1284;129163;-69
2023/12/23 06:09:30;;;;;;;1.60;0.30;;;;;;;0.14;73.21;98489.07;127783;1303;114963;-70
2023/12/23 06:13:32;;;;;;;2.30;0.90;;;;;;;0.13;73.39;98489.44;122795;1293;5411480;-70
2023/12/23 06:17:39;;;;;;;2.10;0.40;;;;;;;0.08;73.45;98491.55;126288;1298;115691;-68
2023/12/23 06:21:45;;;;;;;1.40;0.80;;;;;;;0.03;73.49;98492.09;125901;1298;114824;-69
2023/12/23 06:25:42;;;;;;;0.90;0.50;;;;;;;-0.02;73.51;98504.02;124837;1329;115057;-69
2023/12/23 06:34:17;;;;;;;1.70;0.50;;;;;;;-0.08;73.56;98520.21;125865;1311;640157;-68
2023/12/23 06:38:19;;;;;;;1.00;0.40;;;;;;;-0.15;73.54;98520.27;127909;1293;127260;-69
2023/12/23 06:42:25;;;;;;;1.30;0.90;;;;;;;-0.20;73.56;98524.99;126597;1293;114865;-68
2023/12/23 06:46:17;;;;;;;;;;;;;;;;;;;;;
2023/12/23 06:50:18;;;;;;;;;;;;;;;;;;;;;
2023/12/23 06:58:54;;;;;;;1.40;0.90;;;;;;;-0.31;73.67;98540.43;126549;1294;639464;-68
2023/12/23 07:02:56;;;;;;;2.60;1.10;;;;;;;-0.33;73.83;98543.50;127142;1285;127854;-68
2023/12/23 07:05:59;;;;;;;1.20;0.50;;;;;;;-0.33;73.83;98540.86;126079;1301;115006;-67
2023/12/23 07:09:10;;;;;;;0.50;0.50;;;;;;;-0.32;74.01;98540.83;126084;1299;115009;-68
2023/12/23 07:13:19;;;;;;;1.70;0.70;;;;;;;-0.31;73.97;98536.23;126087;1296;295014;-68
2023/12/23 07:16:43;;;;;;;0.90;0.50;;;;;;;-0.29;74.18;98538.29;126250;1314;114979;-69
2023/12/23 07:19:47;;;;;;;1.00;0.70;;;;;;;-0.25;74.26;98534.29;125586;1301;126957;-68
2023/12/23 07:23:08;;;;;;;1.80;0.80;;;;;;;-0.21;74.33;98531.52;125573;1309;114882;-69
2023/12/23 07:26:14;;;;;;;0.60;0.20;;;;;;;-0.14;74.23;98529.00;125617;1312;114958;-69
2023/12/23 07:29:39;;;;;;;;;;;;;;;;;;;;;
2023/12/23 07:33:10;;;;;;;2.10;0.50;;;;;;;0.06;74.32;98527.94;125677;1308;114858;-68
2023/12/23 07:36:35;;;;;;;2.40;0.60;;;;;;;0.19;74.23;98522.57;125683;1298;130289;-69
2023/12/23 07:40:29;;;;;;;2.80;0.70;;;;;;;0.29;74.42;98529.59;126334;1300;114992;-68
2023/12/23 07:44:37;;;;;;;1.20;0.40;;;;;;;0.41;74.54;98527.07;127460;1286;115204;-66
2023/12/23 07:48:21;;;;;;;3.20;0.90;;;;;;;0.52;74.14;98517.00;128572;1280;114875;-69
2023/12/23 07:52:29;;;;;;;11.30;4.50;;;;;;;0.63;74.52;98519.75;128515;1286;114835;-68
2023/12/23 07:55:58;;;;;;;10.60;5.20;;;;;;;0.74;74.16;98521.27;128478;1297;129379;-67
2023/12/23 07:59:41;;;;;;;15.00;6.90;;;;;;;0.83;73.95;98521.96;129037;1273;114942;-68
2023/12/23 08:03:18;;;;;;;;;;;;;;;;;;;;;
2023/12/23 08:07:14;;;;;;;2.90;1.30;;;;;;;1.02;74.15;98513.14;128330;1279;115097;-68
2023/12/23 08:10:46;;;;;;;;;;;;;;;;;;;;;
2023/12/23 08:14:49;;;;;;;6.60;1.30;;;;;;;1.22;73.71;98499.70;127923;1283;129218;-69
2023/12/23 08:18:51;;;;;;;3.60;0.90;;;;;;;1.32;73.63;98494.70;126581;1292;114980;-68
2023/12/23 08:26:46;;;;;;;;;;;;;;;;;;;;;
2023/12/23 08:35:21;;;;;;;4.90;1.50;;;;;;;1.82;73.09;98481.72;125760;1299;637809;-69
2023/12/23 08:39:24;;;;;;;6.10;2.50;;;;;;;1.92;72.76;98468.61;127633;1284;128025;-69
2023/12/23 08:42:35;;;;;;;4.60;1.80;;;;;;;2.02;72.80;98469.95;126194;1296;116114;-69
2023/12/23 08:46:06;;;;;;;;;;;;;;;2.08;72.75;98458.41;126192;1296;114989;-69
2023/12/23 08:49:24;;;;;;;3.70;1.30;;;;;;;2.15;72.46;98456.35;126285;1296;114986;-68
2023/12/23 08:53:07;;;;;;;8.60;2.20;;;;;;;2.20;72.28;98462.30;126657;1294;115124;-68
2023/12/23 08:56:44;;;;;;;14.50;2.30;;;;;;;2.25;72.19;98463.27;126367;1296;127874;-67
2023/12/23 09:01:02;;;;;;;4.70;1.20;;;;;;;2.31;72.16;98445.92;126402;1307;115503;-67
2023/12/23 09:05:02;;;;;;;7.10;3.30;;;;;;;2.36;72.08;98447.29;125610;1305;114980;-69
2023/12/23 09:08:45;;;;;;;;;;;;;;;;;;;;;
2023/12/23 09:12:48;;;;;;;4.20;1.70;;;;;;;2.45;71.93;98447.59;125228;1323;114901;-68
2023/12/23 09:15:57;;;;;;;7.30;1.90;;;;;;;2.51;71.92;98442.71;125202;1301;130140;-69
2023/12/23 09:19:59;;;;;;;5.40;1.80;;;;;;;2.55;71.82;98439.18;125507;1306;114908;-69
2023/12/23 09:27:09;;;;;;;6.20;2.20;;;;;;;2.66;71.73;98449.61;125154;1305;114916;-69
2023/12/23 09:30:43;;;;;;;5.30;2.40;;;;;;;2.69;72.07;98452.96;125061;1310;115009;-68
2023/12/23 09:34:27;;;;;;;4.70;1.60;;;;;;;2.72;71.95;98440.85;124773;1313;126921;-68
2023/12/23 09:37:51;;;;;;;6.10;1.80;;;;;;;2.76;71.79;98444.38;124916;1309;114844;-68
2023/12/23 09:41:35;;;;;;;11.30;3.30;;;;;;;2.79;71.99;98438.93;125230;1311;114899;-70
2023/12/23 09:44:48;;;;;;;12.00;3.80;;;;;;;2.89;72.16;98426.67;125608;1297;114931;-64
2023/12/23 09:48:39;;;;;;;10.90;3.00;;;;;;;2.97;72.25;98420.46;126435;1293;114966;-68
2023/12/23 09:51:41;;;;;;;6.20;1.50;;;;;;;3.10;72.02;98414.69;125923;1298;128257;-66
2023/12/23 09:55:25;;;;;;;7.90;3.00;;;;;;;3.17;71.80;98408.70;125691;1316;114865;-62
2023/12/23 09:59:15;;;;;;;8.40;2.40;;;;;;;3.25;71.75;98397.39;125507;1298;114997;-62
2023/12/23 10:03:17;;;;;;;7.70;2.10;;;;;;;3.32;72.00;98400.02;125573;1316;114932;-62
2023/12/23 10:06:26;;;;;;;5.00;1.70;;;;;;;3.38;71.88;98401.11;126211;1296;114740;-64
2023/12/23 10:10:03;;;;;;;7.60;2.20;;;;;;;3.43;71.93;98393.45;126720;1307;127961;-63
2023/12/23 10:13:41;;;;;;;6.30;1.90;;;;;;;3.46;71.82;98381.83;126122;1307;114971;-63
2023/12/23 10:17:18;;;;;;;;;;;;;;;;;;;;;
2023/12/23 10:21:21;;;;;;;9.60;2.40;;;;;;;3.52;71.81;98385.45;126684;1289;114988;-66
2023/12/23 10:24:46;;;;;;;3.70;1.50;;;;;;;3.55;71.90;98388.10;125805;1316;114907;-64
2023/12/23 10:28:29;;;;;;;5.50;1.40;;;;;;;3.56;72.06;98387.54;125684;1313;128665;-62
2023/12/23 10:31:39;;;;;;;5.00;1.80;;;;;;;3.55;72.14;98387.94;126160;1292;114981;-62
2023/12/23 10:35:29;;;;;;;;;;;;;;;;;;;;;
2023/12/23 10:38:54;;;;;;;4.30;1.90;;;;;;;3.61;72.75;98389.05;126469;1283;115018;-64
2023/12/23 10:42:49;;;;;;;;;;;;;;;;;;;;;
2023/12/23 10:46:43;;;;;;;4.90;1.70;;;;;;;3.61;73.04;98383.54;127660;1290;129086;-62
2023/12/23 10:50:37;;;;;;;;;;;;;;;;;;;;;
2023/12/23 11:02:45;;;;;;;;;;;;;;;;;;;;;
2023/12/23 11:10:51;;;;;;;3.00;2.00;;;;;;;3.58;74.09;98380.37;127181;1298;114921;-66
2023/12/23 11:14:32;;;;;;;3.50;2.10;;;;;;;3.57;74.20;98386.59;126838;1291;116460;-64
2023/12/23 11:18:34;;;;;;;3.00;1.30;;;;;;;3.58;74.24;98385.50;126530;1299;114885;-63
2023/12/23 11:22:18;;;;;;;3.30;1.70;;;;;;;3.55;74.24;98389.86;126584;1305;114985;-62
2023/12/23 11:26:11;;;;;;;;;;;;;;;;;;;;;
2023/12/23 11:30:13;;;;;;;;;;;;;;;;;;;;;
2023/12/23 11:38:40;;;;;;;;;;;;;;;3.50;74.40;98385.16;127717;1302;128057;-62
2023/12/23 11:42:42;;;;;;;3.70;1.60;;;;;;;3.46;74.67;98382.55;126982;1302;114986;-65
2023/12/23 11:46:23;;;;;;;3.20;2.30;;;;;;;3.43;74.67;98384.14;121952;1302;5422691;-64
2023/12/23 11:53:25;;;;;;;4.20;1.80;;;;;;;3.32;74.59;98387.83;124568;1328;114991;-66
2023/12/23 12:02:01;;;;;;;4.80;2.60;;;;;;;3.15;74.99;98386.92;125032;1303;638677;-64
2023/12/23 12:06:03;;;;;;;7.20;3.60;;;;;;;3.03;75.25;98388.59;127789;1300;128067;-62
2023/12/23 12:10:06;;;;;;;5.10;2.50;;;;;;;2.95;75.26;98390.20;127187;1305;114956;-62
2023/12/23 12:14:10;;;;;;;11.50;4.90;;;;;;;2.90;75.60;98392.95;122871;1289;5406457;-65
2023/12/23 12:18:10;;;;;;;5.10;2.90;;;;;;;2.77;75.59;98396.19;125568;1318;115011;-64
2023/12/23 12:22:12;;;;;;;8.00;2.60;;;;;;;2.68;75.55;98397.70;125142;1305;114980;-64
2023/12/23 12:34:38;;;;;;;7.90;4.70;;;;;;;2.54;76.15;98389.02;127483;1285;635924;-65
2023/12/23 12:38:41;;;;;;;5.00;2.80;;;;;;;2.50;76.45;98389.77;127616;1300;128676;-64
2023/12/23 12:42:43;;;;;;;5.30;4.30;;;;;;;2.47;76.59;98398.52;126731;1291;114830;-64
2023/12/23 12:50:55;;;;;;;2.20;2.00;;;;;;;2.44;76.89;98399.70;125231;1314;115006;-65
2023/12/23 12:54:58;;;;;;;5.40;2.90;;;;;;;2.42;77.13;98408.96;124707;1326;115047;-67
2023/12/23 12:58:52;;;;;;;;;;;;;;;;;;;;;
2023/12/23 13:02:47;;;;;;;5.90;3.30;;;;;;;2.39;77.24;98422.66;123543;1336;129639;-65
2023/12/23 13:15:19;;;;;;;8.90;4.50;;;;;;;2.37;77.58;98435.09;127736;1283;127962;-63
2023/12/23 13:19:22;;;;;;;14.00;4.10;;;;;;;2.33;77.39;98443.72;127022;1305;114943;-66
2023/12/23 13:23:24;;;;;;;16.50;7.20;;;;;;;2.31;77.57;98447.52;122581;1287;5428994;-64
2023/12/23 13:31:07;;;;;;;;;;;;;;;2.27;77.84;98455.09;125428;1319;114874;-67
2023/12/23 13:34:51;;;;;;;30.70;15.60;;;;;;;2.26;77.98;98462.72;125581;1301;129774;-65
2023/12/23 13:38:52;;;;;;;12.50;5.60;;;;;;;2.25;78.17;98462.23;125471;1319;114939;-62
2023/12/23 13:42:54;;;;;;;8.60;3.80;;;;;;;2.22;78.29;98461.98;125668;1311;114920;-64
2023/12/23 13:46:46;;;;;;;;;;;;;;;;;;;;;
2023/12/23 13:55:11;;;;;;;7.20;3.60;;;;;;;2.20;78.48;98470.73;125514;1303;636596;-65
2023/12/23 13:59:13;;;;;;;6.70;2.70;;;;;;;2.16;78.43;98481.83;128551;1281;128755;-65
2023/12/23 14:03:16;;;;;;;8.80;4.50;;;;;;;2.12;78.49;98489.73;127942;1293;114891;-65
2023/12/23 14:07:19;;;;;;;4.10;2.80;;;;;;;2.12;78.61;98497.50;123432;1303;5391347;-64
2023/12/23 14:11:22;;;;;;;4.40;2.60;;;;;;;2.09;78.66;98497.64;126518;1293;115532;-65
2023/12/23 14:15:24;;;;;;;8.30;3.50;;;;;;;2.04;78.74;98493.27;125676;1296;114932;-64
2023/12/23 14:19:26;;;;;;;5.60;3.40;;;;;;;1.98;79.03;98499.67;125175;1305;114897;-69
2023/12/23 14:23:28;;;;;;;9.40;3.80;;;;;;;1.93;79.03;98509.92;124543;1308;128709;-65
2023/12/23 14:36:05;;;;;;;4.80;2.50;;;;;;;1.89;79.55;98529.14;127679;1281;129293;-65
2023/12/23 14:40:08;;;;;;;3.90;2.60;;;;;;;1.84;79.66;98542.52;127205;1297;114974;-64
2023/12/23 14:44:11;;;;;;;5.20;2.90;;;;;;;1.82;79.69;98550.20;122446;1295;5613929;-64
2023/12/23 14:52:13;;;;;;;5.60;3.80;;;;;;;1.79;79.85;98560.02;124726;1326;114918;-63
2023/12/23 15:00:23;;;;;;;;;;;;;;;;;;;;;
2023/12/23 15:04:26;;;;;;;8.40;4.60;;;;;;;1.72;80.14;98573.83;128067;1277;128882;-61
2023/12/23 15:12:16;;;;;;;;;;;;;;;;;;;;;
2023/12/23 15:15:29;;;;;;;5.50;3.10;;;;;;;1.76;80.35;98592.49;126985;1292;114888;-65
2023/12/23 15:19:12;;;;;;;6.20;4.30;;;;;;;1.74;80.38;98596.45;127241;1286;114908;-63
2023/12/23 15:23:04;;;;;;;11.10;5.60;;;;;;;1.75;80.58;98602.73;127113;1305;114970;-64
2023/12/23 15:27:08;;;;;;;16.50;8.00;;;;;;;1.75;80.46;98603.64;127042;1290;128602;-63
2023/12/23 15:30:54;;;;;;;;;;;;;;;;;;;;;
2023/12/23 15:34:57;;;;;;;4.90;3.50;;;;;;;1.75;80.95;98614.35;125494;1315;115151;-63
2023/12/23 15:38:57;;;;;;;;;;;;;;;;;;;;;
2023/12/23 15:42:59;;;;;;;8.30;4.00;;;;;;;1.74;80.90;98628.30;125261;1323;115010;-64
2023/12/23 15:46:53;;;;;;;7.40;3.60;;;;;;;1.73;80.95;98635.92;123833;1334;128871;-64
2023/12/23 15:50:45;;;;;;;13.40;6.50;;;;;;;1.71;80.92;98642.33;124628;1310;114968;-62
2023/12/23 15:54:48;;;;;;;13.70;6.50;;;;;;;1.68;80.96;98650.35;125029;1324;114955;-63
2023/12/23 15:58:30;;;;;;;13.70;5.60;;;;;;;1.64;81.12;98665.83;123845;1323;114797;-63
2023/12/23 16:10:54;;;;;;;9.70;3.90;;;;;;;1.60;81.61;98690.80;127810;1273;128312;-62
2023/12/23 16:14:56;;;;;;;19.10;7.00;;;;;;;1.57;81.59;98692.66;126505;1294;114926;-63
2023/12/23 16:18:58;;;;;;;12.80;6.30;;;;;;;1.60;81.71;98699.08;121318;1307;5428644;-64
2023/12/23 16:22:59;;;;;;;15.10;7.60;;;;;;;1.63;81.74;98695.09;124131;1332;114993;-68
2023/12/23 16:31:19;;;;;;;15.50;7.20;;;;;;;1.76;81.81;98708.33;126302;1294;634895;-64
2023/12/23 16:35:22;;;;;;;14.60;6.50;;;;;;;1.79;82.09;98723.33;129312;1284;129931;-64
2023/12/23 16:39:24;;;;;;;20.00;8.70;;;;;;;1.82;82.17;98728.34;128995;1274;115093;-62
2023/12/23 16:43:16;;;;;;;22.90;7.80;;;;;;;1.86;82.05;98729.58;126035;1293;3401486;-62
2023/12/23 16:51:24;;;;;;;6.50;5.30;;;;;;;1.91;82.16;98731.50;126124;1311;114875;-64
2023/12/23 16:55:25;;;;;;;4.80;3.10;;;;;;;1.93;82.05;98730.34;125219;1302;129740;-71
2023/12/23 17:03:19;;;;;;;;;;;;;;;;;;;;;
2023/12/23 17:06:39;;;;;;;9.50;4.70;;;;;;;1.97;81.89;98731.43;128861;1290;129740;-70
2023/12/23 17:10:24;;;;;;;;;;;;;;;;;;;;;
2023/12/23 17:14:28;;;;;;;3.50;3.20;;;;;;;1.95;81.89;98758.64;128615;1286;116500;-70
2023/12/23 17:17:59;;;;;;;5.10;3.50;;;;;;;1.93;81.91;98769.41;123788;1287;5412339;-70
2023/12/23 17:22:02;;;;;;;9.50;4.80;;;;;;;1.93;81.96;98779.12;127877;1280;114947;-68
2023/12/23 17:25:56;;;;;;;10.70;4.80;;;;;;;1.91;82.15;98785.86;126895;1289;129131;-75
2023/12/23 17:29:52;;;;;;;;;;;;;;;;;;;;;
2023/12/23 17:34:03;;;;;;;10.10;5.50;;;;;;;1.93;82.33;98778.77;126249;1298;114955;-73
2023/12/23 17:37:28;;;;;;;11.50;6.00;;;;;;;1.93;82.22;98779.99;126103;1300;114874;-71
2023/12/23 17:41:29;;;;;;;6.80;3.80;;;;;;;1.93;82.12;98769.44;126010;1319;115003;-68
2023/12/23 17:45:11;;;;;;;;;;;;;;;;;;;;;
2023/12/23 17:49:04;;;;;;;12.00;5.30;;;;;;;1.88;82.32;98771.23;124676;1304;114992;-70
2023/12/23 17:57:30;;;;;;;7.80;4.20;;;;;;;1.88;82.21;98787.08;125736;1300;638820;-72
2023/12/23 18:01:29;;;;;;;6.10;3.70;;;;;;;1.85;82.36;98791.40;127156;1290;128117;-71
2023/12/23 18:05:31;;;;;;;4.90;2.60;;;;;;;1.84;82.23;98800.77;125658;1304;114814;-70
2023/12/23 18:13:50;;;;;;;7.90;4.40;;;;;;;1.88;82.18;98807.64;125275;1308;638763;-67
2023/12/23 18:21:55;;;;;;;7.10;3.40;;;;;;;1.91;82.76;98813.17;127353;1281;114946;-68
2023/12/23 18:25:58;;;;;;;8.00;3.40;;;;;;;1.93;82.49;98813.81;123041;1289;5505176;-72
2023/12/23 18:29:52;;;;;;;;;;;;;;;;;;;;;
2023/12/23 18:33:54;;;;;;;9.90;5.80;;;;;;;1.98;82.78;98808.51;125719;1304;115515;-72
2023/12/23 18:37:56;;;;;;;9.20;5.90;;;;;;;1.98;82.62;98810.27;124916;1324;129697;-72
2023/12/23 18:46:31;;;;;;;6.60;3.50;;;;;;;2.04;82.72;98820.25;125916;1299;636196;-70
2023/12/23 18:54:36;;;;;;;5.20;2.30;;;;;;;2.07;82.83;98827.18;127614;1286;115038;-69
2023/12/23 18:58:45;;;;;;;6.60;3.50;;;;;;;2.08;82.69;98831.20;123650;1283;5434331;-70
2023/12/23 19:02:49;;;;;;;4.20;2.80;;;;;;;2.07;82.64;98838.79;126651;1296;115050;-71
2023/12/23 19:06:32;;;;;;;7.30;4.40;;;;;;;2.07;82.72;98848.31;126172;1314;114872;-68
2023/12/23 19:10:53;;;;;;;3.60;2.30;;;;;;;2.10;82.93;98850.13;126534;1298;128991;-72
2023/12/23 19:14:13;;;;;;;5.20;2.80;;;;;;;2.11;82.96;98849.40;126776;1298;114743;-72
2023/12/23 19:17:18;;;;;;;7.60;2.70;;;;;;;2.13;83.02;98858.81;125797;1298;114942;-68
2023/12/23 19:21:20;;;;;;;4.80;2.70;;;;;;;2.13;82.85;98861.62;125882;1298;114795;-70
2023/12/23 19:24:43;;;;;;;5.20;2.90;;;;;;;2.15;83.02;98860.68;125176;1310;114975;-71
2023/12/23 19:27:46;;;;;;;4.60;2.40;;;;;;;2.16;83.02;98860.10;125192;1304;129736;-71
2023/12/23 19:30:56;;;;;;;6.10;2.80;;;;;;;2.17;83.08;98863.77;125769;1301;114921;-71
2023/12/23 19:34:31;;;;;;;4.80;2.50;;;;;;;2.19;83.08;98869.69;125943;1299;114936;-72
2023/12/23 19:37:56;;;;;;;5.70;3.20;;;;;;;2.23;83.13;98873.79;126342;1291;115053;-72
2023/12/23 19:41:40;;;;;;;3.90;3.10;;;;;;;2.25;83.12;98873.34;126642;1303;114777;-71
2023/12/23 19:45:55;;;;;;;5.10;3.10;;;;;;;2.23;83.03;98872.69;127468;1280;129145;-69
2023/12/23 19:53:45;;;;;;;7.40;4.00;;;;;;;2.26;83.36;98883.15;126580;1290;114948;-71
2023/12/23 19:57:45;;;;;;;6.90;3.70;;;;;;;2.28;83.13;98892.42;126699;1295;114945;-70
2023/12/23 20:05:54;;;;;;;4.10;2.60;;;;;;;2.30;83.19;98899.92;126163;1298;128867;-69
2023/12/23 20:09:54;;;;;;;5.10;2.30;;;;;;;2.33;83.10;98904.22;126271;1318;114866;-70
2023/12/23 20:13:55;;;;;;;3.80;3.00;;;;;;;2.33;83.19;98905.96;125686;1299;114823;-70
2023/12/23 20:17:56;;;;;;;4.10;3.10;;;;;;;2.32;83.34;98909.37;125432;1321;114897;-70
2023/12/23 20:21:12;;;;;;;5.50;4.10;;;;;;;2.31;83.23;98914.70;124696;1329;114984;-70
2023/12/23 20:24:54;;;;;;;4.00;2.70;;;;;;;2.32;83.11;98916.08;124735;1308;130761;-69
2023/12/23 20:28:16;;;;;;;;;;;;;;;;;;;;;
2023/12/23 20:32:08;;;;;;;;;;;;;;;;;;;;;
2023/12/23 20:35:35;;;;;;;3.80;3.20;;;;;;;2.39;83.25;98916.84;124494;1330;115204;-70
2023/12/23 20:39:25;;;;;;;5.00;3.10;;;;;;;2.41;83.42;98921.48;124813;1326;115026;-70
2023/12/23 20:42:29;;;;;;;4.20;2.40;;;;;;;2.44;83.23;98926.89;124630;1323;129562;-70
2023/12/23 20:45:33;;;;;;;3.80;2.40;;;;;;;2.46;83.43;98927.52;124743;1313;115604;-68
2023/12/23 20:48:51;;;;;;;4.60;3.30;;;;;;;2.47;83.29;98928.37;125026;1319;115422;-70
2023/12/23 20:51:58;;;;;;;;;;;;;;;2.48;83.36;98936.95;125645;1301;114976;-70
2023/12/23 20:55:50;;;;;;;;;;;;;;;;;;;;;
2023/12/23 20:59:35;;;;;;;5.10;3.10;;;;;;;2.52;83.35;98947.00;126251;1296;130179;-70
2023/12/23 21:02:35;;;;;;;5.40;4.00;;;;;;;2.55;83.51;98954.14;126412;1295;115311;-70
2023/12/23 21:05:47;;;;;;;5.10;3.70;;;;;;;2.55;83.42;98958.02;126707;1310;114999;-70
2023/12/23 21:08:49;;;;;;;;;;;;;;;2.56;83.47;98957.95;126917;1292;114984;-70
2023/12/23 21:12:54;;;;;;;5.90;4.40;;;;;;;2.57;83.60;98950.88;127256;1277;115326;-70
2023/12/23 21:16:07;;;;;;;5.90;4.40;;;;;;;2.58;83.51;98945.70;127637;1285;129366;-70
2023/12/23 21:19:44;;;;;;;5.00;3.40;;;;;;;2.60;83.56;98953.21;127719;1287;114912;-70
2023/12/23 21:23:28;;;;;;;4.30;3.20;;;;;;;2.62;83.49;98956.70;128401;1277;114942;-70
2023/12/23 21:26:30;;;;;;;;;;;;;;;2.63;83.63;98961.23;128949;1285;114883;-71
2023/12/23 21:30:32;;;;;;;;;;;;;;;;;;;;;
2023/12/23 21:38:23;;;;;;;;;;;;;;;;;;;;;
2023/12/23 21:41:53;;;;;;;4.50;2.70;;;;;;;2.55;83.45;98956.08;126482;1311;115025;-69
2023/12/23 21:44:57;;;;;;;4.30;2.80;;;;;;;2.54;83.43;98962.27;126346;1311;115939;-72
2023/12/23 21:48:13;;;;;;;10.50;2.20;;;;;;;2.50;83.21;98961.52;126448;1289;115095;-68
2023/12/23 21:51:50;;;;;;;4.90;2.60;;;;;;;2.48;83.27;98965.34;126446;1308;127901;-69
2023/12/23 21:55:11;;;;;;;3.80;2.20;;;;;;;2.46;83.25;98971.92;126968;1286;115023;-70
2023/12/23 21:58:41;;;;;;;;;;;;;;;;;;;;;
2023/12/23 22:01:42;;;;;;;4.00;2.60;;;;;;;2.44;83.30;98980.27;126639;1308;115051;-69